Time;durP1;ratioP1;P1;durP2;ratioP2;P2;SDS_P1;SDS_P2;PMS_P1;PMS_P2;Temp;Humidity;BMP_temperature;BMP_pressure;BME280_temperature;BME280_humidity;BME280_pressure;Samples;Min_cycle;Max_cycle;Signal;HPM_P1;HPM_P2
2022/12/01 00:00:29;;;;;;;10.13;8.47;;;6.40;90.50;;;;;;5003494;28;20195;-82
2022/12/01 00:02:55;;;;;;;12.50;9.30;;;6.30;91.80;;;;;;5003339;28;20203;-82
2022/12/01 00:05:20;;;;;;;11.67;9.00;;;6.40;89.30;;;;;;5003861;28;20205;-82
2022/12/01 00:07:48;;;;;;;11.90;9.47;;;6.40;88.50;;;;;;5002855;28;20193;-81
2022/12/01 00:10:26;;;;;;;11.13;9.27;;;6.30;90.30;;;;;;5003743;28;20185;-82
2022/12/01 00:12:56;;;;;;;12.03;9.97;;;6.30;89.70;;;;;;5003239;28;20206;-82
2022/12/01 00:15:25;;;;;;;10.20;9.17;;;6.40;90.80;;;;;;5003772;28;20182;-82
2022/12/01 00:17:51;;;;;;;10.93;9.77;;;6.40;91.30;;;;;;4984222;28;20660;-83
2022/12/01 00:20:17;;;;;;;12.70;10.43;;;6.30;90.40;;;;;;5003760;28;20206;-81
2022/12/01 00:22:47;;;;;;;12.53;10.30;;;6.30;89.00;;;;;;5003074;28;20214;-83
2022/12/01 00:25:15;;;;;;;13.10;10.03;;;6.20;88.90;;;;;;5017353;28;20267;-84
2022/12/01 00:27:40;;;;;;;12.67;10.33;;;6.20;91.80;;;;;;5003090;28;20179;-83
2022/12/01 00:30:10;;;;;;;11.60;9.30;;;6.40;90.00;;;;;;5003140;28;20247;-82
2022/12/01 00:32:36;;;;;;;10.57;9.40;;;6.30;90.40;;;;;;5003205;28;20202;-82
2022/12/01 00:35:03;;;;;;;11.23;9.77;;;6.40;88.10;;;;;;5002373;28;20213;-83
2022/12/01 00:37:30;;;;;;;10.17;8.90;;;6.20;87.10;;;;;;5002803;28;20194;-83
2022/12/01 00:39:57;;;;;;;11.77;9.57;;;6.10;88.70;;;;;;5002838;28;20217;-82
2022/12/01 00:42:22;;;;;;;9.87;8.47;;;6.20;88.70;;;;;;5003046;28;20326;-82
2022/12/01 00:44:48;;;;;;;10.03;9.00;;;6.10;88.50;;;;;;5003078;28;20684;-82
2022/12/01 00:47:14;;;;;;;10.57;9.23;;;6.00;87.90;;;;;;5002865;28;20205;-83
2022/12/01 00:49:40;;;;;;;9.30;8.30;;;6.10;88.20;;;;;;5002982;28;20186;-82
2022/12/01 00:52:06;;;;;;;11.83;8.77;;;6.10;87.60;;;;;;5003599;28;20771;-83
2022/12/01 00:54:31;;;;;;;11.30;8.77;;;6.10;88.20;;;;;;5003022;28;20297;-81
2022/12/01 00:56:58;;;;;;;12.00;9.67;;;6.10;89.10;;;;;;5004547;28;20213;-81
2022/12/01 00:59:24;;;;;;;10.33;9.23;;;6.10;88.80;;;;;;5003313;28;20225;-82
2022/12/01 01:01:51;;;;;;;10.30;9.30;;;6.10;87.90;;;;;;5003962;28;20241;-81
2022/12/01 01:04:17;;;;;;;11.40;9.43;;;6.10;87.90;;;;;;5003692;28;20210;-83
2022/12/01 01:06:43;;;;;;;11.53;9.43;;;6.10;87.60;;;;;;5014212;28;20175;-84
2022/12/01 01:09:09;;;;;;;9.87;8.70;;;6.10;86.70;;;;;;5016310;28;20206;-82
2022/12/01 01:11:35;;;;;;;10.67;9.30;;;6.00;87.40;;;;;;5015672;28;20206;-85
2022/12/01 01:14:01;;;;;;;10.43;9.33;;;6.10;87.70;;;;;;5007168;28;20198;-81
2022/12/01 01:16:27;;;;;;;11.57;10.23;;;6.10;86.90;;;;;;5005587;28;20190;-82
2022/12/01 01:18:54;;;;;;;11.80;10.50;;;6.10;86.90;;;;;;5005820;28;20256;-82
2022/12/01 01:21:20;;;;;;;11.43;10.13;;;6.00;87.50;;;;;;5004776;28;20281;-82
2022/12/01 01:23:48;;;;;;;13.03;10.93;;;6.00;87.00;;;;;;5018329;28;20285;-82
2022/12/01 01:26:26;;;;;;;13.00;10.67;;;6.00;86.90;;;;;;5003398;28;20186;-82
2022/12/01 01:28:52;;;;;;;12.03;10.63;;;6.00;87.60;;;;;;5003892;28;20221;-82
2022/12/01 01:31:20;;;;;;;14.47;12.03;;;5.80;88.70;;;;;;5003870;28;20190;-81
2022/12/01 01:33:46;;;;;;;13.37;11.77;;;5.80;89.00;;;;;;5004240;28;20186;-82
2022/12/01 01:36:14;;;;;;;15.10;12.60;;;5.60;89.00;;;;;;5004155;28;20198;-83
2022/12/01 01:38:40;;;;;;;15.83;13.13;;;5.70;91.00;;;;;;5003788;28;20578;-82
2022/12/01 01:41:06;;;;;;;15.60;12.30;;;5.80;89.40;;;;;;5003519;28;20197;-82
2022/12/01 01:43:45;;;;;;;16.13;13.27;;;5.80;89.10;;;;;;5003492;28;20249;-81
2022/12/01 01:46:19;;;;;;;15.90;13.30;;;5.70;90.20;;;;;;5003057;28;20265;-82
2022/12/01 01:49:04;;;;;;;17.17;13.57;;;5.70;89.20;;;;;;4998929;28;20233;-83
2022/12/01 01:51:31;;;;;;;16.40;13.33;;;5.70;88.70;;;;;;4991767;28;20189;-82
2022/12/01 01:54:19;;;;;;;18.13;14.20;;;5.70;90.30;;;;;;5002686;28;20218;-84
2022/12/01 01:56:47;;;;;;;16.90;13.50;;;5.70;89.90;;;;;;5000657;28;20604;-82
2022/12/01 01:59:19;;;;;;;18.17;14.33;;;5.70;88.90;;;;;;5001625;28;20202;-82
2022/12/01 02:01:49;;;;;;;17.37;13.20;;;5.70;89.90;;;;;;5002877;28;20256;-83
2022/12/01 02:04:15;;;;;;;17.63;14.43;;;5.70;89.80;;;;;;5002804;28;20831;-81
2022/12/01 02:06:41;;;;;;;16.63;14.00;;;5.70;90.10;;;;;;5003051;28;20182;-82
2022/12/01 02:09:10;;;;;;;17.53;15.03;;;5.70;90.50;;;;;;5002979;28;20190;-82
2022/12/01 02:11:47;;;;;;;18.23;14.77;;;5.70;91.30;;;;;;5002927;28;20209;-81
2022/12/01 02:14:34;;;;;;;20.30;16.03;;;5.70;90.10;;;;;;5003048;28;20212;-82
2022/12/01 02:16:59;;;;;;;17.93;14.87;;;5.70;90.80;;;;;;5002174;28;20236;-82
2022/12/01 02:19:56;;;;;;;18.73;15.20;;;5.70;91.30;;;;;;5001832;28;20261;-80
2022/12/01 02:22:44;;;;;;;16.87;14.20;;;5.70;91.30;;;;;;5002199;28;20198;-83
2022/12/01 02:25:18;;;;;;;17.40;14.27;;;5.60;88.80;;;;;;4994449;28;20226;-81
2022/12/01 02:28:08;;;;;;;18.37;14.17;;;5.50;90.00;;;;;;5001680;28;20225;-81
2022/12/01 02:30:37;;;;;;;16.57;14.03;;;5.50;90.00;;;;;;5002747;28;20182;-81
2022/12/01 02:33:13;;;;;;;17.83;14.37;;;5.60;89.70;;;;;;5016580;28;20208;-82
2022/12/01 02:35:49;;;;;;;16.67;13.97;;;5.70;89.80;;;;;;5003140;28;20189;-82
2022/12/01 02:38:20;;;;;;;17.70;14.23;;;5.70;89.30;;;;;;5003081;28;20182;-81
2022/12/01 02:40:55;;;;;;;16.83;13.63;;;5.60;88.20;;;;;;5003125;28;20838;-81
2022/12/01 02:43:25;;;;;;;16.30;13.97;;;5.60;90.10;;;;;;5001339;28;20212;-82
2022/12/01 02:46:01;;;;;;;16.27;13.10;;;5.60;88.70;;;;;;5002512;28;20187;-83
2022/12/01 02:48:26;;;;;;;17.13;13.10;;;5.60;88.10;;;;;;5001444;28;20177;-81
2022/12/01 02:50:53;;;;;;;13.13;11.53;;;5.60;87.30;;;;;;5002705;28;20608;-80
2022/12/01 02:53:19;;;;;;;14.10;11.97;;;5.50;86.10;;;;;;5000933;28;20257;-82
2022/12/01 02:55:50;;;;;;;15.07;12.83;;;5.50;86.10;;;;;;5002283;28;20198;-81
2022/12/01 02:58:16;;;;;;;16.17;13.57;;;5.40;86.10;;;;;;4990282;28;20219;-81
2022/12/01 03:00:57;;;;;;;15.73;12.47;;;5.50;87.30;;;;;;4994369;28;20197;-82
2022/12/01 03:04:08;;;;;;;15.40;13.00;;;5.50;87.40;;;;;;4999210;28;20202;-83
2022/12/01 03:06:58;;;;;;;14.30;12.37;;;5.40;89.60;;;;;;5001333;28;20190;-82
2022/12/01 03:09:55;;;;;;;15.00;12.17;;;5.40;86.00;;;;;;5001867;28;20205;-82
2022/12/01 03:12:39;;;;;;;14.63;12.37;;;5.40;86.20;;;;;;5001846;28;20760;-81
2022/12/01 03:15:32;;;;;;;17.80;14.00;;;5.40;85.40;;;;;;5001852;28;20194;-81
2022/12/01 03:17:57;;;;;;;16.93;14.03;;;5.30;86.20;;;;;;5001839;28;20232;-82
2022/12/01 03:20:46;;;;;;;15.87;14.17;;;5.30;87.50;;;;;;5002587;28;20786;-81
2022/12/01 03:23:18;;;;;;;15.20;12.57;;;5.40;87.20;;;;;;4992669;28;20241;-82
2022/12/01 03:25:47;;;;;;;16.43;14.07;;;5.40;88.00;;;;;;5001092;28;20186;-82
2022/12/01 03:28:16;;;;;;;15.60;13.23;;;5.40;87.20;;;;;;5001572;28;20278;-82
2022/12/01 03:30:44;;;;;;;15.73;13.67;;;5.40;87.80;;;;;;5001269;28;20182;-81
2022/12/01 03:33:19;;;;;;;16.13;13.83;;;5.40;87.30;;;;;;5000583;28;20281;-82
2022/12/01 03:35:54;;;;;;;16.37;13.13;;;5.40;87.10;;;;;;5002002;28;20201;-83
2022/12/01 03:38:24;;;;;;;16.43;14.67;;;5.40;87.80;;;;;;5004889;28;20212;-82
2022/12/01 03:40:55;;;;;;;18.27;14.93;;;5.30;86.90;;;;;;5005788;28;20209;-81
2022/12/01 03:43:27;;;;;;;17.60;14.87;;;5.30;87.00;;;;;;5004510;28;20210;-81
2022/12/01 03:46:17;;;;;;;16.60;13.47;;;5.20;87.30;;;;;;5004777;28;20198;-82
2022/12/01 03:48:44;;;;;;;17.07;14.67;;;5.30;90.10;;;;;;5004019;28;20239;-82
2022/12/01 03:51:24;;;;;;;15.40;13.77;;;5.40;86.20;;;;;;5006207;28;20273;-82
2022/12/01 03:54:17;;;;;;;15.57;12.93;;;5.40;86.80;;;;;;5007873;28;20724;-81
2022/12/01 03:56:49;;;;;;;15.47;13.77;;;5.30;85.90;;;;;;5018217;28;20186;-83
2022/12/01 03:59:18;;;;;;;15.57;13.67;;;5.10;87.00;;;;;;5020234;28;20168;-83
2022/12/01 04:01:44;;;;;;;16.13;13.60;;;5.20;87.60;;;;;;5019171;28;20232;-83
2022/12/01 04:04:11;;;;;;;17.53;14.13;;;5.20;88.70;;;;;;5013422;28;20608;-82
2022/12/01 04:06:40;;;;;;;16.27;13.03;;;5.20;86.30;;;;;;5007143;28;20563;-81
2022/12/01 04:09:06;;;;;;;14.37;12.67;;;5.30;86.60;;;;;;5005164;28;20190;-83
2022/12/01 04:14:15;;;;;;;13.70;11.43;;;5.30;86.60;;;;;;5002245;28;20266;-81
2022/12/01 04:16:41;;;;;;;15.23;12.83;;;5.20;84.10;;;;;;5003639;28;20194;-81
2022/12/01 04:19:07;;;;;;;17.67;13.77;;;5.20;84.80;;;;;;5004832;28;20333;-82
2022/12/01 04:21:32;;;;;;;16.10;13.00;;;5.20;86.10;;;;;;5004793;28;20245;-82
2022/12/01 04:24:01;;;;;;;16.03;13.77;;;5.20;85.20;;;;;;5004692;28;20214;-81
2022/12/01 04:26:32;;;;;;;16.37;13.50;;;5.20;84.70;;;;;;5004833;28;20179;-81
2022/12/01 04:28:59;;;;;;;17.83;13.70;;;5.20;87.70;;;;;;5005442;28;20185;-81
2022/12/01 04:31:25;;;;;;;16.10;14.23;;;5.30;87.10;;;;;;5012112;28;20196;-82
2022/12/01 04:33:52;;;;;;;18.63;14.20;;;5.20;84.60;;;;;;5012662;28;20194;-83
2022/12/01 04:36:18;;;;;;;17.37;14.33;;;5.20;87.00;;;;;;5013505;28;20254;-81
2022/12/01 04:38:43;;;;;;;15.63;13.00;;;5.20;86.40;;;;;;5008506;28;20194;-82
2022/12/01 04:41:13;;;;;;;17.77;14.07;;;5.10;87.20;;;;;;5003901;28;20186;-82
2022/12/01 04:43:39;;;;;;;15.90;13.73;;;5.10;85.30;;;;;;5003599;28;20206;-81
2022/12/01 04:46:06;;;;;;;18.57;14.77;;;5.00;85.90;;;;;;5004209;28;20202;-83
2022/12/01 04:48:34;;;;;;;15.00;13.00;;;5.00;87.40;;;;;;5020174;28;20206;-81
2022/12/01 04:51:00;;;;;;;18.27;14.30;;;5.00;87.70;;;;;;5000094;28;20186;-82
2022/12/01 04:53:26;;;;;;;17.67;13.20;;;5.00;87.50;;;;;;5004068;28;20240;-82
2022/12/01 04:55:51;;;;;;;19.00;15.30;;;5.00;88.70;;;;;;5004472;28;20190;-81
2022/12/01 04:58:17;;;;;;;18.73;14.77;;;5.00;88.20;;;;;;4999594;28;20202;-81
2022/12/01 05:00:43;;;;;;;17.63;14.60;;;5.00;88.60;;;;;;5003576;28;20186;-84
2022/12/01 05:03:09;;;;;;;16.60;14.53;;;5.00;90.50;;;;;;5004330;28;20209;-82
2022/12/01 05:05:34;;;;;;;17.93;15.33;;;5.00;89.80;;;;;;5003903;28;20244;-82
2022/12/01 05:08:00;;;;;;;19.00;16.50;;;5.00;87.70;;;;;;5018358;28;20567;-82
2022/12/01 05:10:26;;;;;;;15.80;13.97;;;5.00;88.00;;;;;;5003242;28;20201;-82
2022/12/01 05:12:53;;;;;;;19.80;15.97;;;5.00;90.10;;;;;;5004066;28;20296;-82
2022/12/01 05:15:19;;;;;;;19.57;15.70;;;5.00;89.80;;;;;;5003234;28;20283;-82
2022/12/01 05:17:45;;;;;;;19.13;16.33;;;5.00;89.00;;;;;;5013290;28;20182;-83
2022/12/01 05:21:20;;;;;;;17.13;14.60;;;5.00;88.90;;;;;;5030457;28;20197;-83
2022/12/01 05:23:15;;;;;;;18.47;15.30;;;5.00;89.40;;;;;;5001879;28;20242;-82
2022/12/01 05:25:41;;;;;;;20.53;14.83;;;5.10;87.40;;;;;;4997268;28;20190;-81
2022/12/01 05:28:07;;;;;;;17.10;14.37;;;5.10;89.00;;;;;;5002585;28;20250;-80
2022/12/01 05:30:32;;;;;;;18.43;14.83;;;5.10;89.40;;;;;;5002090;28;20185;-81
2022/12/01 05:32:58;;;;;;;16.00;14.37;;;5.20;89.30;;;;;;5002263;28;20229;-81
2022/12/01 05:35:23;;;;;;;16.70;13.80;;;5.20;89.20;;;;;;5002890;28;20209;-81
2022/12/01 05:37:49;;;;;;;18.10;14.20;;;5.30;89.80;;;;;;5002809;28;20213;-82
2022/12/01 05:40:15;;;;;;;15.90;13.90;;;5.30;90.40;;;;;;5002911;28;20181;-82
2022/12/01 05:42:40;;;;;;;19.37;14.90;;;5.20;90.50;;;;;;5003253;28;20209;-81
2022/12/01 05:45:07;;;;;;;18.60;14.73;;;5.30;89.30;;;;;;5003495;28;20707;-82
2022/12/01 05:47:32;;;;;;;18.97;14.40;;;5.20;88.00;;;;;;5003240;28;20265;-82
2022/12/01 05:49:58;;;;;;;18.13;15.53;;;5.20;90.50;;;;;;4999123;28;20183;-81
2022/12/01 05:52:23;;;;;;;18.40;15.37;;;5.20;89.60;;;;;;5003346;28;20206;-81
2022/12/01 05:54:49;;;;;;;16.50;13.97;;;5.20;88.20;;;;;;5002064;28;20799;-81
2022/12/01 05:57:15;;;;;;;16.97;13.83;;;5.10;88.50;;;;;;5003472;28;20201;-80
2022/12/01 05:59:40;;;;;;;17.23;14.77;;;5.20;89.70;;;;;;5002120;28;20214;-82
2022/12/01 06:02:06;;;;;;;16.77;13.77;;;5.20;90.00;;;;;;5000063;28;20226;-81
2022/12/01 06:04:32;;;;;;;18.30;14.43;;;5.10;89.20;;;;;;4999851;28;20264;-81
2022/12/01 06:06:57;;;;;;;17.93;13.90;;;5.20;90.50;;;;;;5003066;28;20229;-81
2022/12/01 06:09:24;;;;;;;17.07;14.30;;;5.20;89.10;;;;;;4991599;28;20260;-80
2022/12/01 06:11:49;;;;;;;15.33;13.47;;;5.30;88.00;;;;;;5002360;28;20198;-82
2022/12/01 06:14:15;;;;;;;15.37;13.53;;;5.20;87.40;;;;;;5003062;28;20186;-81
2022/12/01 06:16:41;;;;;;;15.60;13.63;;;5.30;90.10;;;;;;5001949;28;20194;-83
2022/12/01 06:19:06;;;;;;;16.33;13.37;;;5.30;88.20;;;;;;5002807;28;20245;-83
2022/12/01 06:21:32;;;;;;;14.30;12.70;;;5.30;87.90;;;;;;5002285;28;20186;-81
2022/12/01 06:23:58;;;;;;;14.70;13.20;;;5.30;87.40;;;;;;5017265;28;20730;-82
2022/12/01 06:26:23;;;;;;;16.33;13.63;;;5.30;89.60;;;;;;5002238;28;20206;-82
2022/12/01 06:28:49;;;;;;;15.87;14.10;;;5.30;88.70;;;;;;4991247;28;20183;-81
2022/12/01 06:31:18;;;;;;;15.67;14.07;;;5.30;88.70;;;;;;5002104;28;20190;-81
2022/12/01 06:33:43;;;;;;;14.80;13.20;;;5.40;88.30;;;;;;5003029;28;20277;-81
2022/12/01 06:36:09;;;;;;;14.70;13.17;;;5.40;87.50;;;;;;5003486;28;20182;-82
2022/12/01 06:38:36;;;;;;;16.23;13.97;;;5.40;88.30;;;;;;5003434;28;20182;-81
2022/12/01 06:41:02;;;;;;;15.93;14.10;;;5.40;87.80;;;;;;5018480;28;20642;-83
2022/12/01 06:43:28;;;;;;;14.23;12.70;;;5.40;88.60;;;;;;5003226;28;20210;-81
2022/12/01 06:45:54;;;;;;;14.27;12.77;;;5.40;88.80;;;;;;5017432;28;20281;-82
2022/12/01 06:48:20;;;;;;;14.70;13.10;;;5.50;88.40;;;;;;4991212;28;20217;-80
2022/12/01 06:50:45;;;;;;;14.47;12.93;;;5.50;88.00;;;;;;5001780;28;20185;-82
2022/12/01 06:53:11;;;;;;;17.07;14.03;;;5.50;88.70;;;;;;5003637;28;20274;-82
2022/12/01 06:55:38;;;;;;;16.20;13.73;;;5.50;86.50;;;;;;5003674;28;20186;-82
2022/12/01 06:58:04;;;;;;;14.90;13.30;;;5.40;87.00;;;;;;5003310;28;20186;-81
2022/12/01 07:00:30;;;;;;;15.30;12.63;;;5.50;88.90;;;;;;5004556;28;20186;-82
2022/12/01 07:02:56;;;;;;;16.67;14.70;;;5.50;87.80;;;;;;5003816;28;20240;-82
2022/12/01 07:05:21;;;;;;;14.77;13.20;;;5.50;88.70;;;;;;4998005;28;20199;-83
2022/12/01 07:07:47;;;;;;;16.00;13.87;;;5.50;87.80;;;;;;4998106;28;20190;-81
2022/12/01 07:10:13;;;;;;;20.30;14.70;;;5.50;87.30;;;;;;5001419;28;20186;-81
2022/12/01 07:12:39;;;;;;;18.23;14.70;;;5.50;87.70;;;;;;5003752;28;20209;-82
2022/12/01 07:15:07;;;;;;;18.23;16.47;;;5.50;88.90;;;;;;5005508;28;20216;-81
2022/12/01 07:17:33;;;;;;;14.97;13.50;;;5.60;88.60;;;;;;5005950;28;20193;-82
2022/12/01 07:19:59;;;;;;;14.70;13.00;;;5.60;87.20;;;;;;5004721;28;20205;-81
2022/12/01 07:22:25;;;;;;;15.03;13.43;;;5.50;87.30;;;;;;5005683;28;20206;-81
2022/12/01 07:24:50;;;;;;;15.13;12.83;;;5.50;88.10;;;;;;5006017;28;20225;-81
2022/12/01 07:27:16;;;;;;;14.10;12.60;;;5.60;87.50;;;;;;5007199;28;20187;-81
2022/12/01 07:29:42;;;;;;;14.97;13.27;;;5.50;86.60;;;;;;5005299;28;20189;-82
2022/12/01 07:32:07;;;;;;;14.30;12.10;;;5.50;87.00;;;;;;5006362;28;20206;-83
2022/12/01 07:34:33;;;;;;;14.60;13.10;;;5.50;87.20;;;;;;4999281;28;20182;-82
2022/12/01 07:36:59;;;;;;;13.63;11.47;;;5.50;88.40;;;;;;5005611;28;20183;-81
2022/12/01 07:39:24;;;;;;;16.13;13.43;;;5.50;87.60;;;;;;5004202;28;20194;-82
2022/12/01 07:41:50;;;;;;;15.30;13.60;;;5.50;88.10;;;;;;5002566;28;20218;-82
2022/12/01 07:44:16;;;;;;;14.80;12.23;;;5.50;87.40;;;;;;5004921;28;20199;-82
2022/12/01 07:46:42;;;;;;;13.37;11.77;;;5.50;87.80;;;;;;5002553;28;20190;-82
2022/12/01 07:49:10;;;;;;;15.07;12.20;;;5.50;88.30;;;;;;5005539;28;20691;-82
2022/12/01 07:51:36;;;;;;;14.53;12.07;;;5.60;87.50;;;;;;5004614;28;20214;-81
2022/12/01 07:54:05;;;;;;;16.20;12.60;;;5.60;87.40;;;;;;5006445;28;20749;-80
2022/12/01 07:56:30;;;;;;;14.33;12.20;;;5.60;86.10;;;;;;5006760;28;20201;-81
2022/12/01 07:58:56;;;;;;;13.77;11.77;;;5.50;86.70;;;;;;5005634;28;20190;-81
2022/12/01 08:01:23;;;;;;;15.83;12.57;;;5.50;87.70;;;;;;5001901;28;20199;-82
2022/12/01 08:03:54;;;;;;;13.70;12.10;;;5.60;88.70;;;;;;5005802;28;20217;-81
2022/12/01 08:06:21;;;;;;;13.90;12.30;;;5.60;87.90;;;;;;5005585;28;20179;-83
2022/12/01 08:08:48;;;;;;;14.40;12.90;;;5.60;86.50;;;;;;5021245;28;20194;-81
2022/12/01 08:11:39;;;;;;;14.93;13.13;;;5.60;87.00;;;;;;5006252;28;20189;-81
2022/12/01 08:14:05;;;;;;;13.50;12.10;;;5.60;86.50;;;;;;5000970;28;20221;-81
2022/12/01 08:16:31;;;;;;;16.57;12.80;;;5.70;88.10;;;;;;5005343;28;20197;-81
2022/12/01 08:18:56;;;;;;;15.87;12.60;;;5.80;86.00;;;;;;5020348;28;20304;-82
2022/12/01 08:21:23;;;;;;;13.73;12.33;;;5.80;85.10;;;;;;4999339;28;20242;-82
2022/12/01 08:23:53;;;;;;;14.07;12.63;;;5.70;86.80;;;;;;5001049;28;20221;-82
2022/12/01 08:26:20;;;;;;;14.80;12.17;;;5.60;86.10;;;;;;5003413;28;20194;-84
2022/12/01 08:28:46;;;;;;;14.97;13.37;;;5.70;86.60;;;;;;5002671;28;20246;-82
2022/12/01 08:31:16;;;;;;;13.30;11.77;;;5.70;86.60;;;;;;5003735;28;20264;-82
2022/12/01 08:33:42;;;;;;;12.80;11.50;;;5.70;86.20;;;;;;5003739;28;20197;-83
2022/12/01 08:36:08;;;;;;;14.27;12.50;;;5.80;87.50;;;;;;5003268;28;20185;-82
2022/12/01 08:38:34;;;;;;;14.33;12.30;;;5.90;85.50;;;;;;5003133;28;20239;-80
2022/12/01 08:41:06;;;;;;;14.70;12.33;;;5.80;85.50;;;;;;5002625;28;20190;-81
2022/12/01 08:43:31;;;;;;;13.53;12.10;;;5.80;86.70;;;;;;5002442;28;20233;-81
2022/12/01 08:45:59;;;;;;;13.30;11.90;;;5.70;86.80;;;;;;5002700;28;20740;-80
2022/12/01 08:48:24;;;;;;;16.77;12.30;;;5.60;86.40;;;;;;5003196;28;20183;-80
2022/12/01 08:50:50;;;;;;;14.03;11.10;;;5.70;86.90;;;;;;5002302;28;20264;-80
2022/12/01 08:53:16;;;;;;;13.43;11.93;;;5.60;86.00;;;;;;5018159;28;20550;-76
2022/12/01 08:55:42;;;;;;;14.30;12.23;;;5.60;86.90;;;;;;5014913;28;20194;-77
2022/12/01 08:58:07;;;;;;;13.47;11.37;;;5.50;86.10;;;;;;4991409;28;20210;-74
2022/12/01 09:00:33;;;;;;;14.00;11.37;;;5.50;86.20;;;;;;4997765;28;20190;-75
2022/12/01 09:02:59;;;;;;;15.13;12.33;;;5.50;87.00;;;;;;4996836;28;20307;-75
2022/12/01 09:05:25;;;;;;;13.73;11.47;;;5.40;86.80;;;;;;5000380;28;20226;-76
2022/12/01 09:08:30;;;;;;;15.30;12.53;;;5.40;87.70;;;;;;5003831;28;20181;-81
2022/12/01 09:10:36;;;;;;;17.50;11.90;;;5.40;86.30;;;;;;5005295;28;20213;-81
2022/12/01 09:13:02;;;;;;;14.30;12.17;;;5.30;88.10;;;;;;5007404;28;20221;-82
2022/12/01 09:15:28;;;;;;;16.87;12.43;;;5.40;87.50;;;;;;5009360;28;20286;-80
2022/12/01 09:17:53;;;;;;;15.30;12.97;;;5.40;87.20;;;;;;5011106;28;20182;-82
2022/12/01 09:20:19;;;;;;;14.53;12.03;;;5.40;87.80;;;;;;5010855;28;20186;-81
2022/12/01 09:22:45;;;;;;;14.27;12.60;;;5.50;87.30;;;;;;5027650;28;20206;-82
2022/12/01 09:25:13;;;;;;;13.07;11.67;;;5.50;86.50;;;;;;5009813;28;20249;-80
2022/12/01 09:27:39;;;;;;;14.47;12.03;;;5.50;87.70;;;;;;5006159;28;20221;-79
2022/12/01 09:30:06;;;;;;;14.33;12.70;;;5.60;86.50;;;;;;5005042;28;20226;-80
2022/12/01 09:32:32;;;;;;;13.97;12.00;;;5.60;86.10;;;;;;5003761;28;20222;-80
2022/12/01 09:34:58;;;;;;;13.13;11.40;;;5.50;86.30;;;;;;5002911;28;20194;-81
2022/12/01 09:37:23;;;;;;;13.13;11.47;;;5.50;87.10;;;;;;5004035;28;20182;-80
2022/12/01 09:39:49;;;;;;;15.20;12.07;;;5.60;87.30;;;;;;4994049;28;20194;-80
2022/12/01 09:42:17;;;;;;;13.20;11.43;;;5.50;87.40;;;;;;5018187;28;20214;-81
2022/12/01 09:44:50;;;;;;;14.60;11.67;;;5.50;86.70;;;;;;5004553;28;20194;-81
2022/12/01 09:47:21;;;;;;;15.13;12.30;;;5.60;88.40;;;;;;5003944;28;20537;-80
2022/12/01 09:49:50;;;;;;;13.87;12.07;;;5.70;87.50;;;;;;5004022;28;20182;-80
2022/12/01 09:52:18;;;;;;;14.83;12.37;;;5.70;86.20;;;;;;5003182;28;20249;-79
2022/12/01 09:54:45;;;;;;;14.90;12.17;;;5.70;86.80;;;;;;4990645;28;20267;-79
2022/12/01 09:57:30;;;;;;;14.00;12.30;;;5.70;86.80;;;;;;5004453;28;20189;-81
2022/12/01 09:59:58;;;;;;;15.57;12.97;;;5.80;86.90;;;;;;5005766;28;20170;-81
2022/12/01 10:02:36;;;;;;;12.30;11.00;;;5.80;85.70;;;;;;5006811;28;20700;-79
2022/12/01 10:05:19;;;;;;;13.00;11.47;;;5.80;86.80;;;;;;5005466;28;20201;-80
2022/12/01 10:07:54;;;;;;;14.03;12.57;;;5.80;88.10;;;;;;5004937;28;20214;-81
2022/12/01 10:10:25;;;;;;;15.70;12.37;;;5.90;86.20;;;;;;5005089;28;20178;-81
2022/12/01 10:12:51;;;;;;;15.47;12.40;;;5.90;86.20;;;;;;5005406;28;20226;-80
2022/12/01 10:15:26;;;;;;;20.73;12.47;;;5.90;86.00;;;;;;5003807;28;20183;-81
2022/12/01 10:18:24;;;;;;;13.23;11.50;;;5.90;86.50;;;;;;5020942;28;20173;-81
2022/12/01 10:21:01;;;;;;;17.20;11.93;;;5.90;87.00;;;;;;5002472;28;20163;-82
2022/12/01 10:23:46;;;;;;;15.33;13.27;;;5.90;86.30;;;;;;5005388;28;20221;-81
2022/12/01 10:26:17;;;;;;;16.93;12.90;;;6.00;86.30;;;;;;4991081;28;20580;-80
2022/12/01 10:29:20;;;;;;;14.97;12.57;;;6.00;86.50;;;;;;5003013;28;20170;-80
2022/12/01 10:31:57;;;;;;;13.50;11.87;;;6.00;86.90;;;;;;5002214;28;20302;-81
2022/12/01 10:34:35;;;;;;;16.43;12.90;;;5.90;86.80;;;;;;5003603;28;20143;-80
2022/12/01 10:37:01;;;;;;;14.57;12.07;;;6.00;86.60;;;;;;5003977;28;20186;-81
2022/12/01 10:39:35;;;;;;;13.37;11.73;;;6.00;86.70;;;;;;5020277;28;20220;-81
2022/12/01 10:42:15;;;;;;;13.73;12.23;;;6.10;86.80;;;;;;5012408;28;20221;-82
2022/12/01 10:44:41;;;;;;;18.27;12.60;;;6.10;84.50;;;;;;5017288;28;20217;-83
2022/12/01 10:47:24;;;;;;;13.90;12.40;;;6.00;85.80;;;;;;5018676;28;20185;-83
2022/12/01 10:49:51;;;;;;;12.83;11.53;;;6.00;85.70;;;;;;5020652;28;20258;-83
2022/12/01 10:52:35;;;;;;;15.97;13.20;;;6.00;86.70;;;;;;5010949;28;20232;-80
2022/12/01 10:55:03;;;;;;;14.60;12.53;;;6.00;86.10;;;;;;5006404;28;20197;-82
2022/12/01 10:57:30;;;;;;;15.37;12.80;;;6.00;86.70;;;;;;4995721;28;20204;-81
2022/12/01 11:00:07;;;;;;;15.23;12.43;;;5.90;84.40;;;;;;5010308;28;20186;-81
2022/12/01 11:02:34;;;;;;;15.17;12.57;;;5.90;85.60;;;;;;5005085;28;20205;-83
2022/12/01 11:05:04;;;;;;;14.37;12.07;;;5.90;85.90;;;;;;5007417;28;20256;-81
2022/12/01 11:07:46;;;;;;;18.53;13.90;;;5.90;85.30;;;;;;5024290;28;20209;-81
2022/12/01 11:10:34;;;;;;;14.33;12.07;;;5.90;85.20;;;;;;5003574;28;20188;-79
2022/12/01 11:13:22;;;;;;;15.27;12.40;;;6.00;87.30;;;;;;5006594;28;20210;-82
2022/12/01 11:15:52;;;;;;;13.77;12.20;;;6.00;84.90;;;;;;5007264;28;20189;-81
2022/12/01 11:18:32;;;;;;;14.70;11.93;;;6.10;86.20;;;;;;5008181;28;20263;-83
2022/12/01 11:21:14;;;;;;;15.70;12.20;;;6.00;87.90;;;;;;5003204;28;20182;-79
2022/12/01 11:23:50;;;;;;;16.03;11.90;;;6.10;87.70;;;;;;5022107;28;20214;-80
2022/12/01 11:26:29;;;;;;;18.37;13.90;;;6.20;86.00;;;;;;5007760;28;20178;-80
2022/12/01 11:29:00;;;;;;;21.93;13.67;;;6.30;84.80;;;;;;5006959;28;20189;-79
2022/12/01 11:31:45;;;;;;;16.33;12.47;;;6.20;84.30;;;;;;5005852;28;20182;-79
2022/12/01 11:34:25;;;;;;;14.73;11.40;;;6.20;84.50;;;;;;5003053;28;20210;-81
2022/12/01 11:36:54;;;;;;;12.63;11.33;;;6.20;86.40;;;;;;5003750;28;20189;-81
2022/12/01 11:39:34;;;;;;;15.73;12.67;;;6.10;84.70;;;;;;5003819;28;20213;-81
2022/12/01 11:42:02;;;;;;;15.87;12.60;;;6.10;86.30;;;;;;5000270;28;20521;-81
2022/12/01 11:44:29;;;;;;;14.33;12.67;;;6.20;87.20;;;;;;5006545;28;20298;-80
2022/12/01 11:46:57;;;;;;;14.40;12.60;;;6.20;85.20;;;;;;5004041;28;20191;-80
2022/12/01 11:49:27;;;;;;;16.20;12.90;;;6.20;84.90;;;;;;5019973;28;20269;-80
2022/12/01 11:51:53;;;;;;;17.10;12.63;;;6.20;84.80;;;;;;5008897;28;20202;-80
2022/12/01 11:54:22;;;;;;;15.40;13.33;;;6.10;85.70;;;;;;5005273;28;20610;-80
2022/12/01 11:56:50;;;;;;;14.53;12.63;;;6.10;86.30;;;;;;5006878;28;20228;-80
2022/12/01 11:59:22;;;;;;;15.77;12.87;;;6.20;86.50;;;;;;5007138;28;20217;-78
2022/12/01 12:02:12;;;;;;;16.00;12.30;;;6.20;84.70;;;;;;5021422;28;20214;-80
2022/12/01 12:04:56;;;;;;;15.20;12.77;;;6.10;86.50;;;;;;5004659;28;20222;-82
2022/12/01 12:07:33;;;;;;;17.43;13.27;;;6.10;85.30;;;;;;5006151;28;20201;-80
2022/12/01 12:10:13;;;;;;;14.47;12.20;;;6.20;85.70;;;;;;5017535;28;20186;-81
2022/12/01 12:13:03;;;;;;;15.17;13.20;;;6.20;86.40;;;;;;4996315;28;20289;-80
2022/12/01 12:16:00;;;;;;;14.07;12.53;;;6.20;85.30;;;;;;5002023;28;20661;-81
2022/12/01 12:18:32;;;;;;;14.77;12.40;;;6.20;84.50;;;;;;5000730;28;20201;-80
2022/12/01 12:21:07;;;;;;;16.37;13.23;;;6.20;85.20;;;;;;5022034;28;20194;-80
2022/12/01 12:23:57;;;;;;;14.50;12.67;;;6.20;85.30;;;;;;5005265;28;20233;-80
2022/12/01 12:26:25;;;;;;;14.97;13.33;;;6.20;86.30;;;;;;5009510;28;20183;-80
2022/12/01 12:29:03;;;;;;;14.30;12.80;;;6.20;86.70;;;;;;5007013;28;20170;-80
2022/12/01 12:31:41;;;;;;;15.67;13.97;;;6.30;85.50;;;;;;5000670;28;20201;-78
2022/12/01 12:34:30;;;;;;;13.97;12.47;;;6.30;85.80;;;;;;5006215;28;20197;-81
2022/12/01 12:37:16;;;;;;;14.00;12.37;;;6.30;86.30;;;;;;4986747;28;20257;-81
2022/12/01 12:39:54;;;;;;;15.07;12.60;;;6.40;86.10;;;;;;5003789;28;20213;-80
2022/12/01 12:42:22;;;;;;;15.20;13.30;;;6.30;85.40;;;;;;5007266;28;20202;-79
2022/12/01 12:45:01;;;;;;;14.80;13.23;;;6.40;85.30;;;;;;5021153;28;20417;-80
2022/12/01 12:48:06;;;;;;;15.20;12.50;;;6.20;85.20;;;;;;5005754;28;20170;-79
2022/12/01 12:50:35;;;;;;;14.03;11.73;;;6.20;86.40;;;;;;4992419;28;20209;-80
2022/12/01 12:53:08;;;;;;;17.03;13.17;;;6.20;88.00;;;;;;5005321;28;20194;-80
2022/12/01 12:55:48;;;;;;;15.43;13.00;;;6.20;86.20;;;;;;5004944;28;20181;-81
2022/12/01 12:58:25;;;;;;;14.53;12.97;;;6.10;86.20;;;;;;5001164;28;20197;-81